Songa Claudine — V7VL5 — position and weather

sailwx.info

Track history (hours):
 
Tides and Currents Weather Stations Pressure Air Temp Water Temp Dewpoint Dewpoint Depression Visibility Wind Speed Wind Dir Waves Ship Positions

Songa Claudine

Last reported at 2018-Feb-15 16:25 UTC. Time now 2018-Feb-19 04:11 UTC.
Position N 17°20' W 061°03'.

Length 292 m; draft 16.7 m.

Type: Cargo ship. MMSI: 538004151.

Date/timePositionNaut miles runAvg speedWind from/ knotsBaromVisibWave heightAir tempDewpointWater temp
2018-Feb-15 16:25N 17°20' W 061°03'410.0
2018-Feb-15 16:00N 17°17' W 061°06'510.0
2018-Feb-15 15:30N 17°15' W 061°11'5 9.7
2018-Feb-15 15:00N 17°12' W 061°15'5 9.7
2018-Feb-15 14:30N 17°09' W 061°19'5 9.8
2018-Feb-15 14:00N 17°07' W 061°24'5 9.9
2018-Feb-15 13:30N 17°04' W 061°28'510.0
2018-Feb-15 12:59N 17°01' W 061°33'510.2
2018-Feb-15 12:30N 16°58' W 061°37'510.5
2018-Feb-15 12:00N 16°55' W 061°41'5 9.6
2018-Feb-15 11:30N 16°52' W 061°45'5 9.2
2018-Feb-15 11:00N 16°49' W 061°49'5 9.4
2018-Feb-15 10:30N 16°47' W 061°53'5 9.6
2018-Feb-15 10:00N 16°44' W 061°57'5 9.6
2018-Feb-15 09:30N 16°41' W 062°01'5 9.5
2018-Feb-15 09:00N 16°38' W 062°05'5 9.7
2018-Feb-15 08:30N 16°35' W 062°09'5 9.7
2018-Feb-15 08:00N 16°33' W 062°13'5 9.7
2018-Feb-15 07:30N 16°31' W 062°18'5 9.8
2018-Feb-15 07:00N 16°29' W 062°23'5 9.8
2018-Feb-15 06:30N 16°27' W 062°27'5 9.6
2018-Feb-15 05:59N 16°24' W 062°32'4 9.4
2018-Feb-15 05:30N 16°22' W 062°36'  
2018-Feb-08 06:30N 16°29' W 062°08'713.2
2018-Feb-08 06:00N 16°32' W 062°02'713.3
2018-Feb-08 05:30N 16°35' W 061°55'713.5
2018-Feb-08 05:00N 16°38' W 061°49'2013.3
2018-Feb-08 03:30N 16°49' W 061°32'2613.2
2018-Feb-08 01:30N 17°05' W 061°10'713.1
2018-Feb-08 01:00N 17°09' W 061°05'713.1
2018-Feb-08 00:30N 17°14' W 060°60'713.1
2018-Feb-08 00:00N 17°18' W 060°54'  
Track history (hours):
 
Tides and Currents Weather Stations Pressure Air Temp Water Temp Dewpoint Dewpoint Depression Visibility Wind Speed Wind Dir Waves Ship Positions

Songa Claudine

Last reported at 2018-Feb-15 16:25 UTC. Time now 2018-Feb-19 04:11 UTC.
Position N 17°20' W 061°03'.

Length 292 m; draft 16.7 m.

Type: Cargo ship. MMSI: 538004151.

Date/timePositionNaut miles runAvg speedWind from/ knotsBaromVisibWave heightAir tempDewpointWater temp
2018-Feb-15 16:25N 17°20' W 061°03'410.0
2018-Feb-15 16:00N 17°17' W 061°06'510.0
2018-Feb-15 15:30N 17°15' W 061°11'5 9.7
2018-Feb-15 15:00N 17°12' W 061°15'5 9.7
2018-Feb-15 14:30N 17°09' W 061°19'5 9.8
2018-Feb-15 14:00N 17°07' W 061°24'5 9.9
2018-Feb-15 13:30N 17°04' W 061°28'510.0
2018-Feb-15 12:59N 17°01' W 061°33'510.2
2018-Feb-15 12:30N 16°58' W 061°37'510.5
2018-Feb-15 12:00N 16°55' W 061°41'5 9.6
2018-Feb-15 11:30N 16°52' W 061°45'5 9.2
2018-Feb-15 11:00N 16°49' W 061°49'5 9.4
2018-Feb-15 10:30N 16°47' W 061°53'5 9.6
2018-Feb-15 10:00N 16°44' W 061°57'5 9.6
2018-Feb-15 09:30N 16°41' W 062°01'5 9.5
2018-Feb-15 09:00N 16°38' W 062°05'5 9.7
2018-Feb-15 08:30N 16°35' W 062°09'5 9.7
2018-Feb-15 08:00N 16°33' W 062°13'5 9.7
2018-Feb-15 07:30N 16°31' W 062°18'5 9.8
2018-Feb-15 07:00N 16°29' W 062°23'5 9.8
2018-Feb-15 06:30N 16°27' W 062°27'5 9.6
2018-Feb-15 05:59N 16°24' W 062°32'4 9.4
2018-Feb-15 05:30N 16°22' W 062°36'  
2018-Feb-08 06:30N 16°29' W 062°08'713.2
2018-Feb-08 06:00N 16°32' W 062°02'713.3
2018-Feb-08 05:30N 16°35' W 061°55'713.5
2018-Feb-08 05:00N 16°38' W 061°49'2013.3
2018-Feb-08 03:30N 16°49' W 061°32'2613.2
2018-Feb-08 01:30N 17°05' W 061°10'713.1
2018-Feb-08 01:00N 17°09' W 061°05'713.1
2018-Feb-08 00:30N 17°14' W 060°60'713.1
2018-Feb-08 00:00N 17°18' W 060°54'  

Dump ship's entire track history